createdAt,value
2018-08-12T00:00:38.344Z,101601.50
2018-08-12T00:01:43.906Z,101602.30
2018-08-12T00:02:49.960Z,101595.83
2018-08-12T00:03:55.472Z,101598.02
2018-08-12T00:05:01.209Z,101599.27
2018-08-12T00:06:06.658Z,101595.02
2018-08-12T00:07:12.113Z,101600.56
2018-08-12T00:08:18.049Z,101592.83
2018-08-12T00:09:23.905Z,101585.02
2018-08-12T00:10:29.536Z,101589.34
2018-08-12T00:11:34.973Z,101586.34
2018-08-12T00:12:40.748Z,101588.16
2018-08-12T00:13:46.341Z,101593.34
2018-08-12T00:14:52.304Z,101590.80
2018-08-12T00:15:57.995Z,101591.67
2018-08-12T00:17:03.468Z,101582.27
2018-08-12T00:18:08.954Z,101584.02
2018-08-12T00:19:14.905Z,101586.55
2018-08-12T00:20:22.443Z,101582.66
2018-08-12T00:21:27.935Z,101576.73
2018-08-12T00:22:33.465Z,101579.27
2018-08-12T00:23:38.945Z,101579.13
2018-08-12T00:24:44.477Z,101573.07
2018-08-12T00:25:49.952Z,101576.94
2018-08-12T00:26:55.735Z,101583.48
2018-08-12T00:28:01.353Z,101579.97
2018-08-12T00:29:07.357Z,101575.83
2018-08-12T00:30:16.878Z,101576.97
2018-08-12T00:31:22.452Z,101574.16
2018-08-12T00:32:27.900Z,101576.80
2018-08-12T00:33:33.417Z,101575.47
2018-08-12T00:34:38.930Z,101569.03
2018-08-12T00:35:44.379Z,101568.09
2018-08-12T00:36:49.900Z,101568.37
2018-08-12T00:37:55.496Z,101568.89
2018-08-12T00:39:01.383Z,101567.81
2018-08-12T00:40:08.824Z,101568.75
2018-08-12T00:41:14.290Z,101572.13
2018-08-12T00:42:20.138Z,101566.00
2018-08-12T00:43:26.000Z,101563.45
2018-08-12T00:44:32.461Z,101564.78
2018-08-12T00:45:37.956Z,101567.42
2018-08-12T00:46:43.444Z,101566.20
2018-08-12T00:47:49.481Z,101560.77
2018-08-12T00:48:55.288Z,101562.45
2018-08-12T00:50:00.941Z,101567.73
2018-08-12T00:51:07.131Z,101561.26
2018-08-12T00:52:12.621Z,101562.97
2018-08-12T00:53:18.232Z,101562.69
2018-08-12T00:54:23.800Z,101564.08
2018-08-12T00:55:29.474Z,101557.98
2018-08-12T00:56:35.065Z,101560.56
2018-08-12T00:57:40.896Z,101562.69
2018-08-12T00:58:46.360Z,101559.59
2018-08-12T00:59:52.285Z,101560.45
2018-08-12T01:00:57.887Z,101561.50
2018-08-12T01:02:03.428Z,101559.72
2018-08-12T01:03:08.929Z,101565.78
2018-08-12T01:04:14.482Z,101557.21
2018-08-12T01:05:20.518Z,101557.25
2018-08-12T01:06:26.089Z,101558.53
2018-08-12T01:07:31.604Z,101560.56
2018-08-12T01:08:37.614Z,101557.38
2018-08-12T01:09:43.061Z,101554.67
2018-08-12T01:10:48.505Z,101555.86
2018-08-12T01:11:54.185Z,101552.86
2018-08-12T01:12:59.760Z,101550.31
2018-08-12T01:14:05.261Z,101545.30
2018-08-12T01:15:15.472Z,101554.31
2018-08-12T01:16:21.054Z,101544.63
2018-08-12T01:17:26.564Z,101549.53
2018-08-12T01:18:32.888Z,101542.70
2018-08-12T01:19:38.316Z,101547.12
2018-08-12T01:20:43.811Z,101543.35
2018-08-12T01:21:49.317Z,101541.26
2018-08-12T01:22:55.027Z,101540.42
2018-08-12T01:24:00.525Z,101540.84
2018-08-12T01:25:07.706Z,101541.16
2018-08-12T01:26:13.137Z,101539.81
2018-08-12T01:27:18.753Z,101539.74
2018-08-12T01:28:24.318Z,101540.23
2018-08-12T01:29:29.908Z,101538.87
2018-08-12T01:30:35.386Z,101539.96
2018-08-12T01:31:40.873Z,101538.25
2018-08-12T01:32:47.150Z,101540.86
2018-08-12T01:33:53.244Z,101534.45
2018-08-12T01:34:58.721Z,101536.27
2018-08-12T01:36:04.212Z,101538.07
2018-08-12T01:37:09.660Z,101537.69
2018-08-12T01:38:15.141Z,101542.48
2018-08-12T01:39:20.620Z,101541.64
2018-08-12T01:40:26.113Z,101538.17
2018-08-12T01:41:31.606Z,101536.36
2018-08-12T01:42:37.342Z,101543.67
2018-08-12T01:43:42.813Z,101538.52
2018-08-12T01:44:48.260Z,101534.76
2018-08-12T01:45:53.887Z,101534.79
2018-08-12T01:46:59.509Z,101534.41
2018-08-12T01:48:05.036Z,101537.81
2018-08-12T01:49:10.485Z,101533.44
2018-08-12T01:50:17.709Z,101538.66
2018-08-12T01:51:23.287Z,101535.59
2018-08-12T01:52:29.245Z,101526.58
2018-08-12T01:53:34.737Z,101525.32
2018-08-12T01:54:40.234Z,101528.37
2018-08-12T01:55:45.778Z,101524.64
2018-08-12T01:56:51.271Z,101524.68
2018-08-12T01:57:56.784Z,101524.27
2018-08-12T01:59:02.372Z,101519.59
2018-08-12T02:00:12.184Z,101515.77
2018-08-12T02:01:17.793Z,101521.91
2018-08-12T02:02:23.460Z,101517.21
2018-08-12T02:03:28.964Z,101510.52
2018-08-12T02:04:34.405Z,101512.25
2018-08-12T02:05:39.869Z,101515.19
2018-08-12T02:06:45.561Z,101513.89
2018-08-12T02:07:51.086Z,101508.39
2018-08-12T02:08:56.700Z,101505.43
2018-08-12T02:10:02.350Z,101506.69
2018-08-12T02:11:08.116Z,101503.63
2018-08-12T02:12:13.619Z,101501.50
2018-08-12T02:13:19.075Z,101504.91
2018-08-12T02:14:24.809Z,101504.02
2018-08-12T02:15:30.266Z,101505.17
2018-08-12T02:16:35.909Z,101496.52
2018-08-12T02:17:41.966Z,101493.94
2018-08-12T02:18:47.458Z,101492.66
2018-08-12T02:19:52.951Z,101491.05
2018-08-12T02:20:58.498Z,101493.58
2018-08-12T02:22:04.032Z,101488.44
2018-08-12T02:23:09.548Z,101485.45
2018-08-12T02:24:14.985Z,101483.73
2018-08-12T02:25:20.621Z,101487.02
2018-08-12T02:26:26.498Z,101487.44
2018-08-12T02:27:32.044Z,101485.38
2018-08-12T02:28:37.481Z,101482.73
2018-08-12T02:29:42.902Z,101482.80
2018-08-12T02:30:48.372Z,101482.42
2018-08-12T02:31:54.138Z,101481.09
2018-08-12T02:32:59.662Z,101478.27
2018-08-12T02:34:05.169Z,101479.94
2018-08-12T02:35:10.972Z,101482.97
2018-08-12T02:37:41.333Z,101479.17
2018-08-12T02:38:46.800Z,101479.27
2018-08-12T02:39:52.348Z,101475.86
2018-08-12T02:40:57.872Z,101475.47
2018-08-12T02:42:03.342Z,101466.48
2018-08-12T02:43:08.845Z,101470.84
2018-08-12T02:44:14.357Z,101467.78
2018-08-12T02:45:19.894Z,101465.23
2018-08-12T02:46:25.429Z,101464.72
2018-08-12T02:47:31.011Z,101463.88
2018-08-12T02:48:36.433Z,101460.02
2018-08-12T02:49:41.889Z,101457.80
2018-08-12T02:50:47.384Z,101456.52
2018-08-12T02:51:52.916Z,101457.38
2018-08-12T02:52:58.428Z,101456.55
2018-08-12T02:54:03.966Z,101454.80
2018-08-12T02:55:10.950Z,101448.02
2018-08-12T02:56:16.448Z,101449.69
2018-08-12T02:57:21.930Z,101453.00
2018-08-12T02:58:27.493Z,101450.27
2018-08-12T02:59:33.049Z,101450.09
2018-08-12T03:00:38.473Z,101443.14
2018-08-12T03:01:44.037Z,101449.05
2018-08-12T03:02:49.505Z,101447.73
2018-08-12T03:03:55.205Z,101444.67
2018-08-12T03:05:01.045Z,101448.39
2018-08-12T03:06:06.849Z,101444.05
2018-08-12T03:07:12.268Z,101439.28
2018-08-12T03:08:17.688Z,101444.84
2018-08-12T03:09:23.207Z,101444.81
2018-08-12T03:10:29.141Z,101439.24
2018-08-12T03:11:34.649Z,101437.43
2018-08-12T03:12:40.138Z,101434.02
2018-08-12T03:13:45.578Z,101439.52
2018-08-12T03:14:51.061Z,101442.02
2018-08-12T03:15:56.597Z,101439.86
2018-08-12T03:17:02.128Z,101437.36
2018-08-12T03:18:07.604Z,101434.71
2018-08-12T03:19:13.089Z,101431.34
2018-08-12T03:20:18.541Z,101436.48
2018-08-12T03:21:24.057Z,101430.12
2018-08-12T03:22:29.651Z,101430.43
2018-08-12T03:23:35.106Z,101432.70
2018-08-12T03:24:41.269Z,101430.12
2018-08-12T03:25:46.764Z,101426.25
2018-08-12T03:26:52.241Z,101419.81
2018-08-12T03:27:57.777Z,101427.02
2018-08-12T03:29:03.266Z,101423.46
2018-08-12T03:30:10.048Z,101427.78
2018-08-12T03:31:15.353Z,101426.48
2018-08-12T03:32:20.900Z,101423.39
2018-08-12T03:33:26.796Z,101420.39
2018-08-12T03:34:32.220Z,101416.04
2018-08-12T03:35:37.701Z,101421.57
2018-08-12T03:36:43.192Z,101418.58
2018-08-12T03:37:48.623Z,101420.36
2018-08-12T03:38:54.805Z,101420.70
2018-08-12T03:40:00.440Z,101420.36
2018-08-12T03:41:06.242Z,101421.61
2018-08-12T03:42:11.713Z,101423.39
2018-08-12T03:43:17.180Z,101415.77
2018-08-12T03:44:22.683Z,101414.94
2018-08-12T03:45:28.260Z,101415.88
2018-08-12T03:46:33.748Z,101412.95
2018-08-12T03:47:39.525Z,101415.98
2018-08-12T03:48:45.311Z,101409.09
2018-08-12T03:49:50.774Z,101408.22
2018-08-12T03:50:56.244Z,101401.36
2018-08-12T03:52:01.709Z,101400.04
2018-08-12T03:53:07.547Z,101401.29
2018-08-12T03:54:13.036Z,101402.58
2018-08-12T03:55:18.506Z,101400.08
2018-08-12T03:56:24.106Z,101403.73
2018-08-12T03:57:29.617Z,101402.83
2018-08-12T03:58:35.050Z,101401.16
2018-08-12T03:59:40.486Z,101400.74
2018-08-12T04:00:46.027Z,101399.42
2018-08-12T04:01:51.504Z,101395.06
2018-08-12T04:02:56.985Z,101399.42
2018-08-12T04:04:02.477Z,101396.08
2018-08-12T04:05:08.369Z,101396.95
2018-08-12T04:06:13.890Z,101396.91
2018-08-12T04:07:19.363Z,101395.14
2018-08-12T04:08:24.916Z,101397.64
2018-08-12T04:09:30.397Z,101397.16
2018-08-12T04:10:35.909Z,101395.48
2018-08-12T04:11:41.450Z,101398.48
2018-08-12T04:12:47.269Z,101393.25
2018-08-12T04:13:52.753Z,101391.16
2018-08-12T04:14:58.236Z,101392.80
2018-08-12T04:16:03.700Z,101389.87
2018-08-12T04:17:09.181Z,101379.88
2018-08-12T04:18:14.645Z,101387.61
2018-08-12T04:19:20.131Z,101384.12
2018-08-12T04:20:25.661Z,101385.38
2018-08-12T04:21:31.390Z,101380.61
2018-08-12T04:22:37.112Z,101380.60
2018-08-12T04:23:42.625Z,101376.55
2018-08-12T04:24:48.042Z,101371.74
2018-08-12T04:25:53.632Z,101376.89
2018-08-12T04:26:59.197Z,101367.39
2018-08-12T04:28:04.697Z,101367.61
2018-08-12T04:29:10.213Z,101371.36
2018-08-12T04:30:15.709Z,101369.13
2018-08-12T04:31:21.184Z,101365.14
2018-08-12T04:32:26.660Z,101373.67
2018-08-12T04:33:32.164Z,101373.94
2018-08-12T04:34:37.678Z,101371.66
2018-08-12T04:35:43.136Z,101375.36
2018-08-12T04:36:48.616Z,101364.85
2018-08-12T04:37:54.140Z,101368.22
2018-08-12T04:38:59.585Z,101364.23
2018-08-12T04:40:06.646Z,101358.99
2018-08-12T04:41:12.184Z,101367.48
2018-08-12T04:42:17.685Z,101362.20
2018-08-12T04:43:23.152Z,101364.16
2018-08-12T04:44:28.609Z,101363.66
2018-08-12T04:45:34.214Z,101365.66
2018-08-12T04:46:39.817Z,101362.41
2018-08-12T04:47:45.284Z,101364.83
2018-08-12T04:48:50.942Z,101366.41
2018-08-12T04:49:56.457Z,101362.74
2018-08-12T04:51:01.932Z,101364.28
2018-08-12T04:52:07.769Z,101364.16
2018-08-12T04:53:13.251Z,101359.67
2018-08-12T04:54:18.762Z,101360.79
2018-08-12T04:55:24.285Z,101361.29
2018-08-12T04:56:29.781Z,101357.62
2018-08-12T04:57:35.237Z,101361.66
2018-08-12T04:58:40.698Z,101355.67
2018-08-12T04:59:46.127Z,101357.38
2018-08-12T05:00:51.643Z,101355.75
2018-08-12T05:01:57.109Z,101357.92
2018-08-12T05:03:02.739Z,101356.30
2018-08-12T05:04:08.237Z,101356.22
2018-08-12T05:05:13.703Z,101352.05
2018-08-12T05:06:19.194Z,101351.77
2018-08-12T05:07:24.648Z,101354.17
2018-08-12T05:08:30.968Z,101351.38
2018-08-12T05:09:36.468Z,101351.17
2018-08-12T05:10:41.932Z,101344.97
2018-08-12T05:11:47.405Z,101348.50
2018-08-12T05:12:52.956Z,101350.77
2018-08-12T05:13:58.400Z,101351.87
2018-08-12T05:15:03.892Z,101349.55
2018-08-12T05:16:09.388Z,101346.28
2018-08-12T05:17:14.902Z,101348.23
2018-08-12T05:18:20.533Z,101348.05
2018-08-12T05:19:26.025Z,101349.12
2018-08-12T05:20:31.476Z,101346.87
2018-08-12T05:21:37.002Z,101344.48
2018-08-12T05:22:43.180Z,101342.12
2018-08-12T05:23:48.600Z,101342.02
2018-08-12T05:24:54.057Z,101340.42
2018-08-12T05:25:59.812Z,101342.31
2018-08-12T05:27:05.530Z,101347.84
2018-08-12T05:28:11.038Z,101340.42
2018-08-12T05:29:16.447Z,101340.84
2018-08-12T05:30:21.925Z,101345.04
2018-08-12T05:31:27.424Z,101343.83
2018-08-12T05:32:32.900Z,101344.39
2018-08-12T05:33:38.687Z,101340.52
2018-08-12T05:34:44.108Z,101340.04
2018-08-12T05:35:49.608Z,101343.13
2018-08-12T05:36:55.100Z,101339.98
2018-08-12T05:38:00.989Z,101341.35
2018-08-12T05:39:11.384Z,101343.19
2018-08-12T05:40:16.857Z,101334.36
2018-08-12T05:41:22.361Z,101337.64
2018-08-12T05:42:27.810Z,101335.99
2018-08-12T05:43:33.342Z,101331.55
2018-08-12T05:44:38.767Z,101332.80
2018-08-12T05:45:44.222Z,101332.28
2018-08-12T05:46:49.687Z,101329.48
2018-08-12T05:47:55.243Z,101325.82
2018-08-12T05:49:00.749Z,101333.03
2018-08-12T05:50:08.416Z,101326.48
2018-08-12T05:51:13.895Z,101324.16
2018-08-12T05:52:19.372Z,101322.78
2018-08-12T05:53:24.924Z,101326.48
2018-08-12T05:54:30.532Z,101327.95
2018-08-12T05:55:36.033Z,101321.63
2018-08-12T05:56:41.561Z,101328.63
2018-08-12T05:57:47.508Z,101321.56
2018-08-12T05:58:53.153Z,101319.15
2018-08-12T05:59:58.728Z,101321.02
2018-08-12T06:01:04.348Z,101320.07
2018-08-12T06:02:09.888Z,101320.12
2018-08-12T06:03:15.495Z,101328.55
2018-08-12T06:04:21.021Z,101321.84
2018-08-12T06:05:26.554Z,101323.36
2018-08-12T06:06:32.072Z,101319.83
2018-08-12T06:07:37.576Z,101319.98
2018-08-12T06:08:43.033Z,101320.34
2018-08-12T06:09:48.501Z,101324.73
2018-08-12T06:10:53.960Z,101319.50
2018-08-12T06:11:59.493Z,101326.55
2018-08-12T06:13:05.034Z,101323.59
2018-08-12T06:14:10.543Z,101321.37
2018-08-12T06:15:19.050Z,101320.75
2018-08-12T06:16:24.586Z,101324.72
2018-08-12T06:17:30.282Z,101324.98
2018-08-12T06:18:35.677Z,101323.84
2018-08-12T06:19:41.140Z,101322.20
2018-08-12T06:20:46.633Z,101320.34
2018-08-12T06:21:52.317Z,101314.33
2018-08-12T06:22:57.839Z,101319.56
2018-08-12T06:24:03.407Z,101322.73
2018-08-12T06:25:10.720Z,101321.39
2018-08-12T06:26:16.189Z,101322.78
2018-08-12T06:27:21.721Z,101318.70
2018-08-12T06:28:27.252Z,101320.45
2018-08-12T06:29:32.750Z,101318.02
2018-08-12T06:30:38.220Z,101321.17
2018-08-12T06:31:43.703Z,101318.72
2018-08-12T06:32:49.184Z,101317.38
2018-08-12T06:33:54.691Z,101322.77
2018-08-12T06:35:00.179Z,101311.96
2018-08-12T06:36:05.706Z,101312.74
2018-08-12T06:37:11.292Z,101319.31
2018-08-12T06:38:16.748Z,101317.40
2018-08-12T06:39:22.253Z,101317.61
2018-08-12T06:40:28.139Z,101318.08
2018-08-12T06:41:33.689Z,101318.75
2018-08-12T06:42:40.065Z,101310.73
2018-08-12T06:43:45.524Z,101311.71
2018-08-12T06:44:50.956Z,101308.25
2018-08-12T06:45:56.389Z,101307.94
2018-08-12T06:47:01.888Z,101308.14
2018-08-12T06:48:07.428Z,101309.80
2018-08-12T06:49:12.925Z,101305.02
2018-08-12T06:50:18.439Z,101304.13
2018-08-12T06:51:24.010Z,101305.02
2018-08-12T06:52:29.510Z,101305.22
2018-08-12T06:53:34.928Z,101301.63
2018-08-12T06:54:43.413Z,101306.43
2018-08-12T06:55:48.873Z,101306.30
2018-08-12T06:56:54.608Z,101307.30
2018-08-12T06:58:00.122Z,101308.92
2018-08-12T06:59:05.704Z,101306.28
2018-08-12T07:00:16.018Z,101311.13
2018-08-12T07:01:21.564Z,101313.72
2018-08-12T07:02:27.266Z,101311.73
2018-08-12T07:03:32.699Z,101309.72
2018-08-12T07:04:38.309Z,101306.59
2018-08-12T07:05:43.764Z,101309.25
2018-08-12T07:06:49.393Z,101310.14
2018-08-12T07:07:54.962Z,101302.20
2018-08-12T07:09:00.500Z,101299.29
2018-08-12T07:10:09.325Z,101301.45
2018-08-12T07:11:14.946Z,101299.77
2018-08-12T07:12:20.434Z,101301.24
2018-08-12T07:13:26.023Z,101303.81
2018-08-12T07:14:31.599Z,101305.25
2018-08-12T07:15:37.033Z,101307.80
2018-08-12T07:16:42.468Z,101308.49
2018-08-12T07:17:48.377Z,101306.52
2018-08-12T07:18:54.185Z,101304.02
2018-08-12T07:19:59.655Z,101306.00
2018-08-12T07:21:05.120Z,101309.44
2018-08-12T07:22:10.609Z,101311.25
2018-08-12T07:23:16.056Z,101308.68
2018-08-12T07:24:21.595Z,101309.01
2018-08-12T07:25:27.165Z,101305.38
2018-08-12T07:26:33.357Z,101315.92
2018-08-12T07:27:39.612Z,101310.05
2018-08-12T07:28:45.065Z,101306.75
2018-08-12T07:29:50.532Z,101313.44
2018-08-12T07:30:56.053Z,101313.92
2018-08-12T07:32:01.547Z,101310.33
2018-08-12T07:33:07.076Z,101305.31
2018-08-12T07:34:12.544Z,101306.93
2018-08-12T07:35:18.052Z,101305.30
2018-08-12T07:36:23.627Z,101298.97
2018-08-12T07:37:29.164Z,101301.27
2018-08-12T07:38:34.678Z,101295.77
2018-08-12T07:39:40.090Z,101301.08
2018-08-12T07:40:45.528Z,101296.62
2018-08-12T07:41:51.038Z,101297.69
2018-08-12T07:42:56.609Z,101289.81
2018-08-12T07:44:02.038Z,101292.88
2018-08-12T07:45:10.812Z,101289.10
2018-08-12T07:46:16.268Z,101287.61
2018-08-12T07:47:21.693Z,101286.24
2018-08-12T07:48:27.225Z,101283.69
2018-08-12T07:49:32.681Z,101282.52
2018-08-12T07:50:38.138Z,101285.73
2018-08-12T07:51:43.673Z,101279.25
2018-08-12T07:52:49.088Z,101279.07
2018-08-12T07:53:54.652Z,101278.74
2018-08-12T07:55:00.138Z,101276.12
2018-08-12T07:56:06.189Z,101274.86
2018-08-12T07:57:11.646Z,101272.80
2018-08-12T07:58:17.125Z,101272.09
2018-08-12T07:59:22.604Z,101271.56
2018-08-12T08:00:28.130Z,101264.58
2018-08-12T08:01:33.629Z,101264.55
2018-08-12T08:02:39.164Z,101268.03
2018-08-12T08:03:44.708Z,101270.52
2018-08-12T08:04:50.246Z,101267.41
2018-08-12T08:05:55.815Z,101265.56
2018-08-12T08:07:02.922Z,101266.40
2018-08-12T08:08:08.455Z,101261.13
2018-08-12T08:09:14.826Z,101256.64
2018-08-12T08:10:20.322Z,101258.58
2018-08-12T08:11:25.928Z,101259.45
2018-08-12T08:12:31.397Z,101261.45
2018-08-12T08:13:36.895Z,101265.14
2018-08-12T08:14:42.429Z,101267.13
2018-08-12T08:15:47.972Z,101262.01
2018-08-12T08:16:54.298Z,101256.61
2018-08-12T08:17:59.805Z,101262.70
2018-08-12T08:19:05.462Z,101263.47
2018-08-12T08:20:14.730Z,101266.27
2018-08-12T08:21:20.349Z,101263.80
2018-08-12T08:22:25.843Z,101269.40
2018-08-12T08:23:31.371Z,101270.63
2018-08-12T08:24:36.957Z,101266.00
2018-08-12T08:25:42.745Z,101268.95
2018-08-12T08:26:48.157Z,101266.74
2018-08-12T08:27:53.682Z,101269.31
2018-08-12T08:28:59.231Z,101264.45
2018-08-12T08:30:08.336Z,101261.75
2018-08-12T08:31:13.938Z,101263.05
2018-08-12T08:32:19.652Z,101260.48
2018-08-12T08:33:25.450Z,101263.19
2018-08-12T08:34:31.338Z,101261.67
2018-08-12T08:35:37.229Z,101262.55
2018-08-12T08:36:42.794Z,101265.17
2018-08-12T08:37:48.451Z,101261.92
2018-08-12T08:38:53.924Z,101264.00
2018-08-12T08:39:59.621Z,101261.09
2018-08-12T08:41:06.048Z,101259.13
2018-08-12T08:42:11.894Z,101260.27
2018-08-12T08:43:17.597Z,101252.45
2018-08-12T08:44:23.158Z,101254.01
2018-08-12T08:45:28.634Z,101254.47
2018-08-12T08:46:34.182Z,101251.93
2018-08-12T08:47:39.770Z,101250.06
2018-08-12T08:48:45.188Z,101256.75
2018-08-12T08:49:50.718Z,101250.30
2018-08-12T08:50:56.522Z,101250.37
2018-08-12T08:52:02.133Z,101252.13
2018-08-12T08:53:07.923Z,101248.00
2018-08-12T08:54:14.037Z,101244.22
2018-08-12T08:55:20.989Z,101251.45
2018-08-12T08:56:26.793Z,101244.78
2018-08-12T08:57:32.333Z,101250.11
2018-08-12T08:58:38.034Z,101243.67
2018-08-12T08:59:43.971Z,101239.81
2018-08-12T09:00:49.747Z,101242.97
2018-08-12T09:01:55.222Z,101240.38
2018-08-12T09:03:00.789Z,101239.19
2018-08-12T09:05:19.113Z,101243.53
2018-08-12T09:06:24.861Z,101243.02
2018-08-12T09:07:30.582Z,101244.08
2018-08-12T09:08:36.346Z,101240.94
2018-08-12T09:09:41.677Z,101243.23
2018-08-12T09:10:47.149Z,101243.64
2018-08-12T09:11:52.639Z,101243.70
2018-08-12T09:12:58.227Z,101237.06
2018-08-12T09:14:03.863Z,101247.22
2018-08-12T09:15:12.225Z,101238.27
2018-08-12T09:16:17.657Z,101244.47
2018-08-12T09:17:23.201Z,101246.36
2018-08-12T09:18:28.651Z,101247.17
2018-08-12T09:19:34.359Z,101242.25
2018-08-12T09:20:39.838Z,101247.00
2018-08-12T09:21:45.360Z,101240.94
2018-08-12T09:22:50.865Z,101244.38
2018-08-12T09:23:56.434Z,101246.30
2018-08-12T09:25:01.940Z,101245.29
2018-08-12T09:26:07.461Z,101243.30
2018-08-12T09:27:13.000Z,101244.81
2018-08-12T09:28:18.642Z,101241.22
2018-08-12T09:29:24.088Z,101242.15
2018-08-12T09:30:29.603Z,101247.23
2018-08-12T09:31:36.307Z,101242.53
2018-08-12T09:32:42.536Z,101246.80
2018-08-12T09:33:47.954Z,101239.10
2018-08-12T09:34:53.430Z,101241.72
2018-08-12T09:36:00.279Z,101242.48
2018-08-12T09:37:05.944Z,101231.05
2018-08-12T09:38:11.830Z,101236.30
2018-08-12T09:39:17.336Z,101237.03
2018-08-12T09:40:23.513Z,101239.43
2018-08-12T09:41:28.964Z,101233.03
2018-08-12T09:42:34.916Z,101233.22
2018-08-12T09:43:40.467Z,101229.55
2018-08-12T09:44:45.890Z,101234.67
2018-08-12T09:45:56.730Z,101229.63
2018-08-12T09:47:02.214Z,101224.63
2018-08-12T09:48:07.970Z,101228.66
2018-08-12T09:49:13.505Z,101223.59
2018-08-12T09:50:20.401Z,101223.59
2018-08-12T09:51:25.888Z,101217.84
2018-08-12T09:52:31.420Z,101216.25
2018-08-12T09:53:36.986Z,101223.31
2018-08-12T09:54:42.529Z,101218.70
2018-08-12T09:55:47.973Z,101222.73
2018-08-12T09:56:53.453Z,101206.56
2018-08-12T09:57:59.003Z,101213.45
2018-08-12T09:59:04.553Z,101210.13
2018-08-12T10:00:22.652Z,101214.52
2018-08-12T10:01:28.093Z,101210.98
2018-08-12T10:02:33.799Z,101215.07
2018-08-12T10:03:39.449Z,101212.27
2018-08-12T10:04:44.960Z,101208.61
2018-08-12T10:05:50.507Z,101214.14
2018-08-12T10:06:55.997Z,101208.35
2018-08-12T10:08:01.762Z,101212.78
2018-08-12T10:09:10.581Z,101212.22
2018-08-12T10:10:16.371Z,101206.16
2018-08-12T10:11:21.824Z,101210.43
2018-08-12T10:12:27.381Z,101210.43
2018-08-12T10:13:32.952Z,101212.34
2018-08-12T10:14:38.524Z,101215.68
2018-08-12T10:15:43.989Z,101206.49
2018-08-12T10:16:49.537Z,101202.70
2018-08-12T10:17:56.896Z,101202.61
2018-08-12T10:19:02.454Z,101198.52
2018-08-12T10:20:08.802Z,101196.76
2018-08-12T10:21:14.343Z,101196.75
2018-08-12T10:22:19.835Z,101192.56
2018-08-12T10:23:25.822Z,101194.22
2018-08-12T10:24:31.405Z,101193.63
2018-08-12T10:25:36.924Z,101193.28
2018-08-12T10:26:42.405Z,101189.21
2018-08-12T10:27:47.957Z,101188.02
2018-08-12T10:28:53.831Z,101183.00
2018-08-12T10:29:59.309Z,101182.27
2018-08-12T10:31:04.808Z,101175.36
2018-08-12T10:32:10.475Z,101174.29
2018-08-12T10:33:15.972Z,101171.43
2018-08-12T10:34:21.453Z,101171.06
2018-08-12T10:35:26.949Z,101172.77
2018-08-12T10:36:32.540Z,101173.94
2018-08-12T10:37:38.457Z,101170.61
2018-08-12T10:38:43.909Z,101167.75
2018-08-12T10:39:49.469Z,101165.45
2018-08-12T10:40:54.977Z,101162.96
2018-08-12T10:42:00.525Z,101159.87
2018-08-12T10:43:06.074Z,101159.77
2018-08-12T10:44:11.691Z,101162.84
2018-08-12T10:45:17.444Z,101159.09
2018-08-12T10:46:22.952Z,101159.87
2018-08-12T10:47:28.524Z,101161.27
2018-08-12T10:48:34.190Z,101164.16
2018-08-12T10:49:39.697Z,101160.08
2018-08-12T10:50:45.193Z,101156.88
2018-08-12T10:51:50.774Z,101155.57
2018-08-12T10:52:56.377Z,101156.63
2018-08-12T10:54:02.445Z,101152.55
2018-08-12T10:55:08.614Z,101156.38
2018-08-12T10:56:14.266Z,101153.06
2018-08-12T10:57:19.856Z,101146.61
2018-08-12T10:58:25.518Z,101149.11
2018-08-12T10:59:31.343Z,101144.82
2018-08-12T11:00:38.369Z,101150.06
2018-08-12T11:01:43.916Z,101145.92
2018-08-12T11:02:49.576Z,101147.93
2018-08-12T11:03:55.178Z,101147.81
2018-08-12T11:05:00.672Z,101141.13
2018-08-12T11:06:06.602Z,101144.11
2018-08-12T11:07:12.301Z,101138.11
2018-08-12T11:08:17.804Z,101138.05
2018-08-12T11:09:23.345Z,101136.96
2018-08-12T11:10:30.089Z,101144.34
2018-08-12T11:11:35.629Z,101137.50
2018-08-12T11:12:41.408Z,101140.22
2018-08-12T11:13:46.893Z,101142.85
2018-08-12T11:14:52.354Z,101134.02
2018-08-12T11:15:57.890Z,101141.69
2018-08-12T11:17:03.526Z,101140.80
2018-08-12T11:18:09.114Z,101143.77
2018-08-12T11:19:14.581Z,101141.20
2018-08-12T11:20:21.182Z,101137.63
2018-08-12T11:21:26.587Z,101134.53
2018-08-12T11:22:32.052Z,101136.01
2018-08-12T11:23:37.901Z,101130.38
2018-08-12T11:24:43.377Z,101136.22
2018-08-12T11:25:49.180Z,101134.50
2018-08-12T11:26:56.108Z,101130.84
2018-08-12T11:28:01.612Z,101133.09
2018-08-12T11:29:07.873Z,101123.26
2018-08-12T11:30:17.536Z,101125.00
2018-08-12T11:31:23.037Z,101120.34
2018-08-12T11:32:28.822Z,101122.06
2018-08-12T11:33:34.291Z,101114.19
2018-08-12T11:34:39.918Z,101122.17
2018-08-12T11:35:45.435Z,101115.68
2018-08-12T11:36:51.159Z,101117.72
2018-08-12T11:37:56.685Z,101111.30
2018-08-12T11:39:02.166Z,101113.88
2018-08-12T11:40:09.643Z,101120.71
2018-08-12T11:41:15.141Z,101114.36
2018-08-12T11:42:20.541Z,101114.92
2018-08-12T11:43:26.191Z,101111.19
2018-08-12T11:44:31.700Z,101112.74
2018-08-12T11:45:37.301Z,101111.53
2018-08-12T11:46:42.762Z,101109.38
2018-08-12T11:47:49.250Z,101106.94
2018-08-12T11:48:55.257Z,101111.78
2018-08-12T11:50:00.721Z,101116.16
2018-08-12T11:51:06.369Z,101109.45
2018-08-12T11:52:11.826Z,101115.25
2018-08-12T11:53:17.436Z,101106.69
2018-08-12T11:54:23.023Z,101109.39
2018-08-12T11:55:28.436Z,101102.01
2018-08-12T11:56:33.908Z,101101.19
2018-08-12T11:57:39.825Z,101099.85
2018-08-12T11:58:45.245Z,101099.16
2018-08-12T11:59:50.720Z,101101.73
2018-08-12T12:00:56.475Z,101101.04
2018-08-12T12:02:02.948Z,101092.22
2018-08-12T12:03:09.016Z,101079.35
2018-08-12T12:04:14.564Z,101090.72
2018-08-12T12:05:20.137Z,101085.09
2018-08-12T12:06:26.021Z,101079.48
2018-08-12T12:07:31.576Z,101084.63
2018-08-12T12:08:37.442Z,101082.34
2018-08-12T12:09:43.072Z,101079.80
2018-08-12T12:10:48.682Z,101082.45
2018-08-12T12:11:54.274Z,101079.59
2018-08-12T12:12:59.897Z,101079.67
2018-08-12T12:14:06.211Z,101082.16
2018-08-12T12:15:12.526Z,101075.91
2018-08-12T12:16:18.063Z,101071.11
2018-08-12T12:17:23.589Z,101076.95
2018-08-12T12:18:29.733Z,101069.12
2018-08-12T12:19:35.243Z,101069.66
2018-08-12T12:20:40.905Z,101067.86
2018-08-12T12:21:46.686Z,101061.71
2018-08-12T12:22:52.133Z,101062.81
2018-08-12T12:23:57.822Z,101063.28
2018-08-12T12:25:03.357Z,101063.30
2018-08-12T12:26:10.226Z,101058.71
2018-08-12T12:27:15.874Z,101056.05
2018-08-12T12:28:21.388Z,101055.73
2018-08-12T12:29:27.006Z,101053.03
2018-08-12T12:30:32.559Z,101055.58
2018-08-12T12:31:38.368Z,101054.78
2018-08-12T12:32:44.708Z,101046.30